Time;durP1;ratioP1;P1;durP2;ratioP2;P2;SDS_P1;SDS_P2;PMS_P1;PMS_P2;Temp;Humidity;BMP_temperature;BMP_pressure;BME280_temperature;BME280_humidity;BME280_pressure;Samples;Min_cycle;Max_cycle;Signal;HPM_P1;HPM_P2
2023/01/04 00:00:17;;;;;;;12.57;11.27;;;;;;;8.74;56.30;99129.69;8289803;28;20242;-75
2023/01/04 00:04:20;;;;;;;13.20;10.47;;;;;;;8.73;55.59;99135.72;8289995;28;20254;-75
2023/01/04 00:08:23;;;;;;;11.37;10.03;;;;;;;8.35;56.94;99128.63;8289702;28;20226;-75
2023/01/04 00:12:28;;;;;;;15.20;13.57;;;;;;;8.28;56.71;99127.88;8289559;28;20239;-75
2023/01/04 00:16:30;;;;;;;17.53;14.13;;;;;;;8.34;56.97;99139.81;8288881;28;20235;-75
2023/01/04 00:20:33;;;;;;;14.33;12.87;;;;;;;8.34;56.29;99130.34;8288631;28;20265;-75
2023/01/04 00:24:36;;;;;;;10.60;9.60;;;;;;;8.16;56.25;99133.22;8289097;28;20514;-76
2023/01/04 00:28:40;;;;;;;10.83;9.47;;;;;;;8.30;56.78;99143.31;8288720;28;20232;-76
2023/01/04 00:32:43;;;;;;;10.20;9.20;;;;;;;7.78;57.89;99114.88;8288608;28;20237;-74
2023/01/04 00:36:47;;;;;;;9.77;8.60;;;;;;;8.00;57.45;99135.22;8289491;28;20391;-75
2023/01/04 00:40:50;;;;;;;10.27;8.83;;;;;;;8.21;56.42;99123.69;8289496;28;20523;-74
2023/01/04 00:44:54;;;;;;;10.43;9.43;;;;;;;8.30;55.97;99115.81;8287157;28;20434;-75
2023/01/04 00:48:57;;;;;;;10.13;9.03;;;;;;;8.33;56.23;99107.16;8284332;28;20231;-75
2023/01/04 00:53:02;;;;;;;13.53;9.40;;;;;;;8.35;56.23;99106.22;8283955;28;20239;-76
2023/01/04 00:57:06;;;;;;;10.40;9.17;;;;;;;8.23;56.22;99093.56;8283571;28;20423;-75
2023/01/04 01:01:10;;;;;;;9.47;8.57;;;;;;;8.27;55.75;99086.63;8283893;28;20247;-76
2023/01/04 01:05:13;;;;;;;10.73;9.10;;;;;;;8.03;55.81;99086.13;8283690;28;20231;-75
2023/01/04 01:09:17;;;;;;;10.97;9.00;;;;;;;8.11;55.13;99066.22;8283486;28;20239;-76
2023/01/04 01:13:20;;;;;;;10.47;9.37;;;;;;;8.22;55.75;99092.72;8283772;28;20403;-76
2023/01/04 01:17:25;;;;;;;9.83;8.90;;;;;;;8.03;56.11;99084.41;8283051;28;20231;-75
2023/01/04 01:21:28;;;;;;;10.30;9.20;;;;;;;7.97;56.10;99088.81;8282328;28;20526;-76
2023/01/04 01:25:33;;;;;;;9.90;8.90;;;;;;;7.87;55.80;99070.06;8283545;28;20223;-75
2023/01/04 01:29:36;;;;;;;10.80;8.90;;;;;;;8.03;56.00;99086.13;8283757;28;20235;-75
2023/01/04 01:33:41;;;;;;;10.00;9.00;;;;;;;8.03;55.90;99089.56;8283211;28;20226;-75
2023/01/04 01:37:44;;;;;;;11.07;9.07;;;;;;;8.07;55.59;99095.50;8282510;28;20238;-75
2023/01/04 01:41:47;;;;;;;9.70;8.70;;;;;;;7.99;55.84;99081.91;8282955;28;20227;-75
2023/01/04 01:45:52;;;;;;;11.17;10.07;;;;;;;7.79;56.36;99082.22;8282829;28;20470;-74
2023/01/04 01:49:56;;;;;;;10.80;9.80;;;;;;;7.59;57.59;99085.06;8283025;28;20230;-74
2023/01/04 01:54:03;;;;;;;11.63;10.43;;;;;;;7.52;57.04;99088.59;8282762;28;20238;-75
2023/01/04 01:58:06;;;;;;;14.20;12.23;;;;;;;7.10;59.33;99071.16;8282685;28;20230;-75
2023/01/04 02:02:10;;;;;;;13.03;11.57;;;;;;;6.03;63.46;99058.53;8282665;28;20231;-75
2023/01/04 02:06:19;;;;;;;11.87;10.67;;;;;;;7.34;58.09;99067.38;8282295;28;20223;-75
2023/01/04 02:10:23;;;;;;;11.77;10.67;;;;;;;7.32;58.45;99066.56;8282471;28;20223;-74
2023/01/04 02:14:29;;;;;;;12.73;10.90;;;;;;;7.56;56.90;99061.94;8282181;28;20273;-74
2023/01/04 02:18:35;;;;;;;11.47;10.23;;;;;;;7.78;56.16;99065.03;8281852;28;20246;-74
2023/01/04 02:22:55;;;;;;;11.17;10.17;;;;;;;7.69;56.16;99058.31;8281576;28;20238;-74
2023/01/04 02:27:38;;;;;;;12.83;11.17;;;;;;;7.24;56.44;99009.13;8281475;28;20293;-74
2023/01/04 02:31:45;;;;;;;11.53;10.33;;;;;;;7.68;55.96;99056.59;8276921;28;20235;-73
2023/01/04 02:35:53;;;;;;;13.47;12.13;;;;;;;7.05;58.05;99052.31;8282000;28;20231;-74
2023/01/04 02:39:59;;;;;;;12.13;10.93;;;;;;;7.33;57.66;99047.66;8282094;28;20349;-74
2023/01/04 02:52:57;;;;;;;12.47;10.90;;;;;;;7.50;56.10;99051.69;8281155;28;20261;-74
2023/01/04 02:57:07;;;;;;;14.03;12.13;;;;;;;7.43;56.11;99049.22;8281477;28;20235;-74
2023/01/04 03:10:07;;;;;;;12.40;11.20;;;;;;;7.31;58.75;99033.94;8280489;28;20487;-74
2023/01/04 03:14:13;;;;;;;13.10;11.80;;;;;;;6.78;61.47;99026.03;8280943;28;20231;-74
2023/01/04 03:18:38;;;;;;;14.20;12.90;;;;;;;7.20;60.36;99016.03;8281008;28;20227;-75
2023/01/04 03:35:58;;;;;;;28.80;14.20;;;;;;;6.61;63.48;99007.38;8279939;28;20231;-75
2023/01/04 03:49:14;;;;;;;13.70;12.40;;;;;;;7.63;61.95;98993.91;8280298;28;20426;-74
2023/01/04 03:53:17;;;;;;;14.70;13.30;;;;;;;7.65;62.05;98987.00;8279979;28;20230;-75
2023/01/04 03:57:22;;;;;;;14.40;13.00;;;;;;;7.32;62.96;98978.94;8280118;28;20235;-75
2023/01/04 04:01:26;;;;;;;15.90;14.40;;;;;;;7.08;64.69;98976.72;8279960;28;20234;-74
2023/01/04 04:09:50;;;;;;;14.40;13.10;;;;;;;7.15;64.92;98968.88;8279459;28;20231;-74
2023/01/04 04:13:54;;;;;;;15.63;14.03;;;;;;;7.68;62.17;98971.50;8279664;28;20231;-74
2023/01/04 04:17:57;;;;;;;15.07;13.60;;;;;;;7.53;62.49;98959.72;8279487;28;20243;-74
2023/01/04 04:21:59;;;;;;;14.53;13.13;;;;;;;7.24;62.83;98913.81;8283228;28;20227;-75
2023/01/04 04:26:02;;;;;;;12.60;11.43;;;;;;;7.66;63.49;98962.94;8285670;28;20582;-75
2023/01/04 04:30:08;;;;;;;12.97;11.77;;;;;;;7.15;64.60;98948.28;8285642;28;20222;-75
2023/01/04 04:34:11;;;;;;;12.60;11.40;;;;;;;7.53;63.18;98949.41;8285582;28;20227;-75
2023/01/04 04:38:14;;;;;;;14.10;12.70;;;;;;;7.02;64.79;98944.16;8285531;28;20235;-74
2023/01/04 04:42:17;;;;;;;12.73;11.53;;;;;;;7.02;65.11;98939.88;8285291;28;20258;-75
2023/01/04 04:46:21;;;;;;;12.50;11.40;;;;;;;7.65;63.13;98943.19;8285129;28;20230;-75
2023/01/04 04:50:24;;;;;;;12.70;11.50;;;;;;;7.19;64.87;98938.78;8284763;28;20219;-74
2023/01/04 04:54:27;;;;;;;12.40;10.87;;;;;;;7.85;63.12;98931.69;8284869;28;20249;-74
2023/01/04 04:58:30;;;;;;;13.43;12.13;;;;;;;7.42;64.39;98928.97;8284854;28;20235;-75
2023/01/04 05:02:34;;;;;;;12.37;11.20;;;;;;;7.42;64.69;98921.25;8284604;28;20454;-74
2023/01/04 05:06:37;;;;;;;12.00;10.90;;;;;;;7.62;64.58;98917.47;8284599;28;20226;-75
2023/01/04 05:10:40;;;;;;;14.30;12.80;;;;;;;7.07;66.06;98923.53;8283950;28;20230;-74
2023/01/04 05:14:42;;;;;;;14.10;12.70;;;;;;;7.41;65.11;98921.25;8283909;28;20222;-74
2023/01/04 05:18:47;;;;;;;14.90;13.40;;;;;;;7.28;66.28;98930.06;8285265;28;20258;-74
2023/01/04 05:22:49;;;;;;;13.13;11.83;;;;;;;7.93;63.46;98928.09;8284963;28;20238;-74
2023/01/04 05:26:52;;;;;;;14.83;13.33;;;;;;;8.14;62.43;98923.41;8284960;28;20277;-74
2023/01/04 05:30:55;;;;;;;14.43;13.03;;;;;;;8.17;62.44;98926.78;8284283;28;20226;-74
2023/01/04 05:34:59;;;;;;;13.10;11.77;;;;;;;7.74;64.20;98918.97;8284562;28;20231;-74
2023/01/04 05:39:02;;;;;;;13.67;12.20;;;;;;;7.95;63.06;98918.59;8284435;28;20242;-75
2023/01/04 05:43:05;;;;;;;13.73;12.37;;;;;;;8.04;63.02;98917.56;8284616;28;20234;-76
2023/01/04 05:47:08;;;;;;;13.70;12.30;;;;;;;8.00;62.63;98915.94;8284130;28;20223;-74
2023/01/04 05:51:18;;;;;;;12.83;11.53;;;;;;;8.14;62.54;98920.81;8283784;28;20227;-75
2023/01/04 05:55:21;;;;;;;12.97;11.67;;;;;;;8.12;62.67;98912.28;8284099;28;20231;-75
2023/01/04 05:59:23;;;;;;;14.13;12.63;;;;;;;7.43;64.93;98893.75;8284142;28;20223;-75
2023/01/04 06:03:26;;;;;;;13.60;12.30;;;;;;;7.87;63.51;98899.00;8283695;28;20235;-75
2023/01/04 06:07:31;;;;;;;12.83;11.50;;;;;;;7.47;64.63;98877.34;8283930;28;20556;-74
2023/01/04 06:11:34;;;;;;;13.17;11.77;;;;;;;7.71;63.79;98896.69;8283661;28;20230;-74
2023/01/04 06:15:36;;;;;;;12.03;10.83;;;;;;;7.72;64.59;98888.06;8283528;28;20231;-74
2023/01/04 06:19:44;;;;;;;11.73;10.53;;;;;;;7.53;65.09;98882.38;8282606;28;20234;-74
2023/01/04 06:23:49;;;;;;;12.33;11.03;;;;;;;7.86;63.56;98856.00;8283192;28;20239;-74
2023/01/04 06:27:51;;;;;;;12.27;11.07;;;;;;;7.96;63.50;98873.88;8282964;28;20236;-74
2023/01/04 06:31:55;;;;;;;13.23;11.93;;;;;;;7.63;64.77;98867.59;8282921;28;20230;-75
2023/01/04 06:35:58;;;;;;;12.50;11.20;;;;;;;7.80;64.47;98870.72;8283039;28;20378;-74
2023/01/04 06:40:02;;;;;;;13.20;11.43;;;;;;;7.18;66.27;98849.50;8282813;28;20231;-74
2023/01/04 06:44:05;;;;;;;11.83;10.63;;;;;;;7.94;63.92;98854.13;8281692;28;20306;-75
2023/01/04 06:48:08;;;;;;;11.80;10.50;;;;;;;7.61;64.22;98841.00;8282252;28;20223;-75
2023/01/04 06:52:11;;;;;;;11.27;10.17;;;;;;;8.11;62.99;98852.09;8282071;28;20231;-75
2023/01/04 06:56:15;;;;;;;11.30;10.20;;;;;;;7.83;63.68;98850.03;8282380;28;20246;-74
2023/01/04 07:00:18;;;;;;;11.00;9.90;;;;;;;8.11;63.00;98848.63;8282384;28;20231;-75
2023/01/04 07:04:21;;;;;;;13.60;11.70;;;;;;;7.23;66.63;98837.38;8281687;28;20235;-75
2023/01/04 07:08:24;;;;;;;13.10;10.93;;;;;;;7.47;65.34;98824.94;8281726;28;20568;-75
2023/01/04 07:12:28;;;;;;;12.47;11.17;;;;;;;6.98;67.43;98819.75;8281918;28;20222;-75
2023/01/04 07:16:31;;;;;;;11.80;10.60;;;;;;;7.54;65.80;98818.78;8281950;28;20226;-74
2023/01/04 07:20:33;;;;;;;12.10;10.90;;;;;;;7.78;64.06;98813.16;8281245;28;20252;-74
2023/01/04 07:24:36;;;;;;;11.53;9.90;;;;;;;7.78;64.74;98812.31;8281654;28;20565;-80
2023/01/04 07:33:00;;;;;;;11.43;10.23;;;;;;;7.74;65.11;98813.25;8280968;28;20226;-75
2023/01/04 07:37:03;;;;;;;11.20;10.10;;;;;;;8.06;63.68;98811.78;8281645;28;20227;-75
2023/01/04 07:41:06;;;;;;;11.87;10.60;;;;;;;7.88;64.41;98805.25;8281376;28;20519;-75
2023/01/04 07:45:10;;;;;;;12.57;10.90;;;;;;;7.79;64.67;98799.41;8281073;28;20290;-75
2023/01/04 07:49:17;;;;;;;10.93;9.83;;;;;;;6.99;66.83;98736.47;8281304;28;20526;-74
2023/01/04 07:53:20;;;;;;;10.47;9.47;;;;;;;8.20;64.23;98802.00;8281189;28;20237;-75
2023/01/04 07:57:23;;;;;;;10.60;9.50;;;;;;;7.48;67.15;98799.13;8287759;28;20294;-75
2023/01/04 08:01:27;;;;;;;11.80;9.87;;;;;;;7.52;66.50;98792.19;8287651;28;20231;-75
2023/01/04 08:05:32;;;;;;;11.40;9.27;;;;;;;7.90;66.08;98788.00;8287691;28;20222;-76
2023/01/04 08:09:35;;;;;;;11.10;9.97;;;;;;;7.70;65.78;98763.47;8287383;28;20233;-75
2023/01/04 08:13:37;;;;;;;12.20;9.63;;;;;;;7.97;66.03;98777.53;8287349;28;20238;-74
2023/01/04 08:17:42;;;;;;;10.77;9.67;;;;;;;7.28;67.41;98768.59;8287149;28;20246;-74
2023/01/04 08:21:45;;;;;;;9.73;8.47;;;;;;;8.10;64.12;98757.50;8286248;28;20230;-74
2023/01/04 08:25:48;;;;;;;9.97;8.97;;;;;;;8.01;66.16;98770.59;8286626;28;20234;-74
2023/01/04 08:29:50;;;;;;;10.33;8.77;;;;;;;7.72;66.12;98755.72;8286936;28;20249;-74
2023/01/04 08:33:55;;;;;;;8.43;7.53;;;;;;;8.33;64.05;98750.97;8286313;28;20230;-74
2023/01/04 08:37:58;;;;;;;8.77;7.23;;;;;;;8.31;64.15;98745.84;8286598;28;20241;-74
2023/01/04 08:42:21;;;;;;;8.03;6.90;;;;;;;8.20;64.55;98727.19;8286353;28;20246;-74
2023/01/04 08:46:33;;;;;;;7.43;6.73;;;;;;;8.65;63.52;98708.94;8286314;28;20227;-74
2023/01/04 08:50:37;;;;;;;7.10;6.40;;;;;;;8.38;63.69;98695.78;8286106;28;20406;-74
2023/01/04 08:54:40;;;;;;;6.50;5.90;;;;;;;8.84;62.74;98706.75;8286168;28;20426;-74
2023/01/04 08:58:43;;;;;;;5.20;4.70;;;;;;;8.66;61.93;98705.47;8285487;28;20223;-74
2023/01/04 09:02:45;;;;;;;5.47;4.80;;;;;;;8.69;61.97;98712.31;8285532;28;20239;-74
2023/01/04 09:06:49;;;;;;;4.63;4.23;;;;;;;9.02;61.14;98713.16;8284628;28;20433;-74
2023/01/04 09:10:52;;;;;;;11.70;4.37;;;;;;;9.45;61.82;98704.25;8285565;28;20238;-75
2023/01/04 09:14:55;;;;;;;4.17;3.87;;;;;;;9.19;60.70;98702.38;8285478;28;20227;-75
2023/01/04 09:18:58;;;;;;;3.97;3.57;;;;;;;9.30;60.07;98695.19;8285157;28;20581;-76
2023/01/04 09:23:02;;;;;;;3.63;3.33;;;;;;;9.48;59.07;98711.06;8284849;28;20318;-75
2023/01/04 09:27:05;;;;;;;2.77;2.57;;;;;;;9.77;59.35;98702.50;8284997;28;20234;-74
2023/01/04 09:31:08;;;;;;;3.40;3.10;;;;;;;9.77;57.49;98707.69;8284843;28;20228;-75
2023/01/04 09:35:11;;;;;;;3.67;2.27;;;;;;;9.63;57.14;98705.47;8284807;28;20227;-76
2023/01/04 09:39:16;;;;;;;2.90;2.23;;;;;;;9.88;57.03;98705.63;8284818;28;20409;-77
2023/01/04 09:43:29;;;;;;;2.80;2.50;;;;;;;9.58;56.84;98702.19;8284549;28;20294;-77
2023/01/04 09:47:38;;;;;;;2.40;2.20;;;;;;;9.70;56.92;98703.56;8284225;28;20237;-76
2023/01/04 09:51:43;;;;;;;2.20;2.00;;;;;;;10.14;56.13;98693.63;8283770;28;20226;-75
2023/01/04 09:55:50;;;;;;;2.33;2.10;;;;;;;9.96;56.10;98689.88;8283908;28;20307;-76
2023/01/04 09:59:57;;;;;;;2.67;2.10;;;;;;;10.13;55.35;98687.59;8284149;28;20229;-77
2023/01/04 10:04:05;;;;;;;1.70;1.60;;;;;;;10.15;55.74;98678.06;8283766;28;20233;-77
2023/01/04 10:08:15;;;;;;;1.50;1.40;;;;;;;9.56;56.28;98684.13;8283708;28;20231;-77
2023/01/04 10:12:33;;;;;;;2.27;1.60;;;;;;;10.13;55.24;98672.06;8283565;28;20256;-77
2023/01/04 10:16:48;;;;;;;2.00;1.40;;;;;;;10.14;55.61;98675.50;8283735;28;20544;-79
2023/01/04 10:21:20;;;;;;;1.17;1.07;;;;;;;9.80;56.23;98673.94;8282958;28;20296;-79
2023/01/04 10:25:41;;;;;;;2.43;1.00;;;;;;;10.03;56.26;98652.53;8283132;28;20234;-79
2023/01/04 10:29:56;;;;;;;1.63;1.00;;;;;;;10.04;55.15;98651.66;8282679;28;20226;-78
2023/01/04 10:34:03;;;;;;;1.57;1.20;;;;;;;10.23;55.69;98627.78;8283112;28;20476;-79
2023/01/04 10:38:13;;;;;;;0.70;0.70;;;;;;;10.40;55.04;98624.69;8282965;28;20231;-80
2023/01/04 10:42:21;;;;;;;1.27;0.83;;;;;;;10.38;55.29;98619.53;8283059;28;20229;-79
2023/01/04 10:46:28;;;;;;;1.20;0.90;;;;;;;10.47;55.15;98619.25;8282281;28;20233;-79
2023/01/04 10:50:38;;;;;;;1.50;0.90;;;;;;;10.40;54.88;98602.22;8282684;28;20234;-79
2023/01/04 10:54:46;;;;;;;0.80;0.70;;;;;;;10.50;55.18;98610.50;8281946;28;20280;-74
2023/01/04 10:58:52;;;;;;;2.13;1.93;;;;;;;10.40;55.72;98602.22;8282360;28;20230;-79
2023/01/04 11:03:00;;;;;;;1.30;0.73;;;;;;;10.17;56.43;98602.94;8281704;28;20234;-79
2023/01/04 11:07:15;;;;;;;0.97;0.70;;;;;;;10.54;55.24;98592.22;8281751;28;20231;-80
2023/01/04 11:11:22;;;;;;;0.93;0.80;;;;;;;10.42;55.43;98558.16;8281772;28;20233;-78
2023/01/04 11:15:25;;;;;;;0.60;0.60;;;;;;;10.62;55.58;98586.78;8282171;28;20234;-79
2023/01/04 11:19:30;;;;;;;1.27;1.03;;;;;;;10.70;63.28;98587.38;8281793;28;20234;-80
2023/01/04 11:23:32;;;;;;;4.33;1.40;;;;;;;12.00;67.74;98583.41;8281411;28;20290;-76
2023/01/04 11:27:42;;;;;;;1.53;1.00;;;;;;;12.57;58.14;98575.03;8281737;28;20258;-76
2023/01/04 11:31:48;;;;;;;1.37;0.80;;;;;;;11.47;54.00;98568.16;8280208;28;20515;-78
2023/01/04 11:35:54;;;;;;;1.07;0.60;;;;;;;11.42;53.96;98568.31;8281519;28;20519;-78
2023/01/04 11:40:19;;;;;;;0.67;0.67;;;;;;;11.41;53.95;98569.25;8282762;28;20337;-77
2023/01/04 11:44:22;;;;;;;0.70;0.70;;;;;;;11.26;54.61;98562.88;8284060;28;20223;-76
2023/01/04 11:48:34;;;;;;;0.50;0.50;;;;;;;11.18;54.41;98562.34;8281369;28;20230;-77
2023/01/04 11:52:40;;;;;;;1.23;0.70;;;;;;;11.12;54.56;98547.84;8281316;28;20238;-76
2023/01/04 11:56:58;;;;;;;1.17;0.63;;;;;;;11.19;54.86;98543.28;8280436;28;20542;-76
2023/01/04 12:01:01;;;;;;;1.33;0.70;;;;;;;10.98;55.44;98539.72;8280965;28;20244;-77
2023/01/04 12:05:17;;;;;;;1.13;0.50;;;;;;;11.26;54.83;98524.00;8280871;28;20231;-76
2023/01/04 12:09:31;;;;;;;2.53;0.73;;;;;;;11.01;55.44;98512.88;8256469;28;20273;-76
2023/01/04 12:13:34;;;;;;;1.37;0.70;;;;;;;10.90;56.21;98502.91;8248877;28;20227;-77
2023/01/04 12:17:46;;;;;;;1.40;0.40;;;;;;;11.14;55.48;98514.94;8248252;28;20230;-74
2023/01/04 12:21:51;;;;;;;1.10;0.57;;;;;;;11.20;55.77;98497.47;8240830;28;20236;-75
2023/01/04 12:25:56;;;;;;;0.63;0.60;;;;;;;11.13;55.48;98489.91;8248641;28;20247;-75
2023/01/04 12:30:01;;;;;;;0.63;0.50;;;;;;;11.18;56.01;98474.19;8247772;28;20242;-74
2023/01/04 12:34:40;;;;;;;0.70;0.60;;;;;;;11.38;55.71;98481.19;8248411;28;20238;-76
2023/01/04 12:39:02;;;;;;;1.57;0.60;;;;;;;11.05;56.75;98480.75;8246724;28;20232;-78
2023/01/04 12:43:26;;;;;;;1.47;0.70;;;;;;;11.18;56.57;98468.16;8251974;28;20231;-74
2023/01/04 12:52:37;;;;;;;1.23;0.60;;;;;;;11.27;56.79;98445.31;8253669;28;20250;-75
2023/01/04 12:57:25;;;;;;;1.37;0.70;;;;;;;11.39;56.63;98425.84;8253527;28;20516;-74
2023/01/04 13:01:34;;;;;;;0.60;0.60;;;;;;;11.25;57.38;98425.53;8253372;28;20239;-74
2023/01/04 13:05:38;;;;;;;1.20;0.60;;;;;;;11.42;56.85;98424.84;8253399;28;20366;-75
2023/01/04 13:10:01;;;;;;;0.67;0.50;;;;;;;11.35;57.30;98419.09;8251904;28;20231;-74
2023/01/04 13:14:08;;;;;;;0.67;0.50;;;;;;;11.28;57.96;98426.25;8253235;28;20295;-75
2023/01/04 13:18:27;;;;;;;1.00;0.60;;;;;;;11.40;57.57;98432.69;8253010;28;20235;-74
2023/01/04 13:22:32;;;;;;;0.70;0.60;;;;;;;11.44;57.96;98429.09;8252538;28;20236;-75
2023/01/04 13:26:39;;;;;;;0.80;0.60;;;;;;;11.04;58.86;98417.72;8252803;28;20442;-74
2023/01/04 13:30:43;;;;;;;2.00;0.50;;;;;;;11.05;58.79;98419.38;8252252;28;20270;-73
2023/01/04 13:34:51;;;;;;;0.77;0.60;;;;;;;11.09;59.20;98404.56;8252554;28;20246;-74
2023/01/04 13:38:54;;;;;;;1.43;0.60;;;;;;;11.25;58.58;98397.88;8252411;28;20450;-76
2023/01/04 13:43:09;;;;;;;0.93;0.57;;;;;;;11.26;58.92;98390.94;8252251;28;20239;-77
2023/01/04 13:47:12;;;;;;;2.00;0.70;;;;;;;11.16;59.75;98380.09;8252733;28;20523;-78
2023/01/04 13:51:22;;;;;;;1.30;0.90;;;;;;;11.30;59.25;98382.94;8251929;28;20229;-79
2023/01/04 13:55:27;;;;;;;2.53;0.70;;;;;;;11.29;59.90;98389.06;8251841;28;20246;-78
2023/01/04 13:59:29;;;;;;;2.60;1.40;;;;;;;11.43;59.64;98383.31;8252132;28;20247;-80
2023/01/04 14:03:36;;;;;;;1.53;1.13;;;;;;;11.35;60.13;98393.16;8251830;28;20324;-77
2023/01/04 14:07:42;;;;;;;2.53;2.30;;;;;;;11.30;60.97;98384.72;8251255;28;20250;-78
2023/01/04 14:12:00;;;;;;;1.73;1.60;;;;;;;11.41;60.84;98386.88;8251022;28;20258;-81
2023/01/04 14:16:12;;;;;;;2.00;1.90;;;;;;;11.49;60.78;98390.00;8250712;28;20234;-79
2023/01/04 14:20:33;;;;;;;3.50;3.20;;;;;;;11.44;61.30;98394.50;8250616;28;20335;-79
2023/01/04 14:24:37;;;;;;;1.33;0.90;;;;;;;11.30;61.79;98393.31;8250540;28;20523;-79
2023/01/04 14:29:21;;;;;;;1.53;0.83;;;;;;;11.45;61.07;98378.06;8250053;28;20250;-80
2023/01/04 14:33:31;;;;;;;1.63;1.53;;;;;;;11.51;61.43;98377.81;8249692;28;20368;-80
2023/01/04 14:37:34;;;;;;;1.73;0.90;;;;;;;11.31;62.23;98370.84;8250624;28;20224;-77
2023/01/04 14:41:40;;;;;;;1.37;1.27;;;;;;;11.54;61.34;98377.69;8249675;28;20239;-79
2023/01/04 14:45:43;;;;;;;0.70;0.70;;;;;;;11.35;62.17;98362.03;8248844;28;20227;-79
2023/01/04 14:49:46;;;;;;;2.43;1.50;;;;;;;11.09;63.24;98360.50;8249417;28;20243;-79
2023/01/04 14:53:49;;;;;;;1.83;1.40;;;;;;;11.39;63.13;98355.81;8250030;28;20257;-81
2023/01/04 14:57:54;;;;;;;1.40;1.27;;;;;;;11.32;65.55;98351.78;8249503;28;20245;-81
2023/01/04 15:01:58;;;;;;;0.87;0.80;;;;;;;11.17;66.86;98342.03;8249659;28;20236;-80
2023/01/04 15:06:01;;;;;;;1.70;1.00;;;;;;;11.10;67.67;98323.28;8248527;28;20251;-80
2023/01/04 15:10:06;;;;;;;1.77;1.20;;;;;;;10.95;68.96;98328.19;8248651;28;20321;-80
2023/01/04 15:14:10;;;;;;;1.00;1.00;;;;;;;11.05;69.03;98317.47;8249019;28;20375;-80
2023/01/04 15:18:13;;;;;;;1.77;1.10;;;;;;;11.00;68.93;98301.25;8248958;28;20228;-79
2023/01/04 15:22:16;;;;;;;3.43;1.83;;;;;;;11.06;68.76;98320.00;8248828;28;20241;-80
2023/01/04 15:26:19;;;;;;;1.40;1.30;;;;;;;11.01;69.45;98321.09;8248686;28;20408;-76
2023/01/04 15:30:23;;;;;;;3.10;2.00;;;;;;;10.99;69.09;98313.38;8247852;28;20278;-76
2023/01/04 15:34:26;;;;;;;4.63;1.70;;;;;;;11.30;70.69;98314.72;8246945;28;20564;-75
2023/01/04 15:38:29;;;;;;;1.87;1.53;;;;;;;11.32;69.26;98313.72;8247785;28;20245;-76
2023/01/04 15:46:54;;;;;;;1.43;1.10;;;;;;;11.23;68.66;98308.94;8215929;28;20255;-76
2023/01/04 15:50:57;;;;;;;2.37;1.63;;;;;;;11.23;68.96;98292.53;8215772;28;20587;-76
2023/01/04 15:55:01;;;;;;;1.93;1.00;;;;;;;11.23;68.87;98287.34;8234488;28;20531;-78
2023/01/04 15:59:04;;;;;;;1.53;1.10;;;;;;;11.32;68.31;98289.56;8247513;28;20255;-78
2023/01/04 16:03:08;;;;;;;1.60;1.50;;;;;;;11.16;68.79;98273.81;8247339;28;20231;-77
2023/01/04 16:07:11;;;;;;;1.23;1.13;;;;;;;11.14;68.86;98270.44;8247476;28;20578;-76
2023/01/04 16:11:16;;;;;;;2.53;1.97;;;;;;;11.09;69.17;98273.22;8247475;28;20388;-76
2023/01/04 16:15:22;;;;;;;2.07;1.70;;;;;;;11.10;69.37;98274.03;8248261;28;20228;-76
2023/01/04 16:19:26;;;;;;;2.83;2.00;;;;;;;11.30;68.39;98265.44;8253000;28;20246;-77
2023/01/04 16:23:29;;;;;;;3.80;2.53;;;;;;;11.10;68.84;98279.22;8252519;28;20303;-76
2023/01/04 16:27:32;;;;;;;4.03;3.10;;;;;;;11.12;69.37;98274.84;8253103;28;20244;-77
2023/01/04 16:31:37;;;;;;;3.03;2.30;;;;;;;11.02;69.40;98279.53;8252402;28;20569;-77
2023/01/04 16:35:42;;;;;;;3.13;2.83;;;;;;;11.09;69.38;98282.75;8252680;28;20250;-78
2023/01/04 16:39:45;;;;;;;2.90;2.60;;;;;;;11.18;68.75;98276.34;8252327;28;20358;-76
2023/01/04 16:44:07;;;;;;;4.23;3.30;;;;;;;11.34;68.56;98267.84;8252117;28;20230;-77
2023/01/04 16:48:11;;;;;;;8.37;5.77;;;;;;;11.26;68.89;98269.91;8252555;28;20232;-77
2023/01/04 16:52:25;;;;;;;5.13;3.47;;;;;;;11.26;69.69;98269.09;8256964;28;20222;-76
2023/01/04 16:56:28;;;;;;;4.33;3.17;;;;;;;11.16;70.28;98260.84;8263704;28;20348;-76
2023/01/04 17:00:32;;;;;;;5.87;3.97;;;;;;;11.11;70.33;98244.63;8274487;28;20659;-77
2023/01/04 17:04:36;;;;;;;4.17;2.30;;;;;;;11.27;69.89;98253.47;8284221;28;20237;-78
2023/01/04 17:08:40;;;;;;;2.40;1.90;;;;;;;11.23;70.08;98258.81;8284358;28;20242;-77
2023/01/04 17:12:43;;;;;;;5.37;3.47;;;;;;;11.24;70.51;98255.34;8283255;28;20256;-77
2023/01/04 17:16:49;;;;;;;1.60;1.30;;;;;;;11.08;71.14;98243.03;8283499;28;20301;-76
2023/01/04 17:20:53;;;;;;;2.00;1.50;;;;;;;11.07;70.94;98251.69;8252841;28;20249;-77
2023/01/04 17:25:02;;;;;;;1.70;1.37;;;;;;;11.12;71.48;98256.72;8252321;28;20239;-75
2023/01/04 17:29:05;;;;;;;1.27;1.17;;;;;;;11.09;72.22;98234.34;8250064;28;20245;-76
2023/01/04 17:33:08;;;;;;;0.60;0.60;;;;;;;10.95;72.13;98234.09;8251878;28;20300;-75
2023/01/04 17:37:11;;;;;;;0.67;0.60;;;;;;;11.13;72.07;98229.88;8252495;28;20236;-74
2023/01/04 17:41:16;;;;;;;0.87;0.80;;;;;;;10.91;72.83;98229.94;8251532;28;20430;-76
2023/01/04 17:45:20;;;;;;;1.30;0.90;;;;;;;11.15;71.81;98220.28;8251934;28;20236;-77
2023/01/04 17:49:23;;;;;;;1.70;1.20;;;;;;;10.98;71.83;98182.09;8252063;28;20303;-76
2023/01/04 17:53:33;;;;;;;2.60;1.50;;;;;;;11.32;71.32;98232.50;8251830;28;20278;-76
2023/01/04 17:57:40;;;;;;;0.80;0.80;;;;;;;11.26;72.06;98215.47;8251462;28;20294;-77
2023/01/04 18:01:44;;;;;;;1.07;0.80;;;;;;;11.19;72.22;98215.81;8251671;28;20238;-75
2023/01/04 18:05:50;;;;;;;1.23;0.63;;;;;;;11.23;72.30;98201.78;8251741;28;20271;-75
2023/01/04 18:10:01;;;;;;;1.47;0.80;;;;;;;11.01;72.82;98192.34;8251508;28;20246;-76
2023/01/04 18:14:05;;;;;;;1.63;1.00;;;;;;;11.14;72.80;98201.28;8251435;28;20243;-75
2023/01/04 18:18:15;;;;;;;1.87;0.87;;;;;;;11.32;72.36;98202.22;8251181;28;20291;-75
2023/01/04 18:22:18;;;;;;;1.77;0.90;;;;;;;11.01;73.80;98202.72;8250199;28;20241;-76
2023/01/04 18:26:21;;;;;;;1.53;1.30;;;;;;;11.30;73.63;98206.66;8251056;28;20227;-75
2023/01/04 18:30:26;;;;;;;2.70;1.00;;;;;;;11.13;73.64;98204.78;8250521;28;20227;-75
2023/01/04 18:34:29;;;;;;;1.00;1.00;;;;;;;11.26;72.83;98202.50;8250791;28;20238;-75
2023/01/04 18:38:33;;;;;;;0.70;0.70;;;;;;;11.38;72.73;98198.53;8249565;28;20234;-75
2023/01/04 18:42:36;;;;;;;1.60;0.70;;;;;;;11.20;73.27;98188.97;8250459;28;20235;-75
2023/01/04 18:46:40;;;;;;;0.60;0.60;;;;;;;11.34;72.71;98197.00;8250090;28;20519;-75
2023/01/04 18:50:43;;;;;;;1.23;0.90;;;;;;;11.25;73.63;98207.75;8250106;28;20258;-76
2023/01/04 18:54:47;;;;;;;1.70;0.60;;;;;;;11.25;73.11;98205.16;8249913;28;20236;-75
2023/01/04 18:58:51;;;;;;;0.70;0.70;;;;;;;11.29;72.63;98204.13;8250172;28;20294;-76
2023/01/04 19:02:56;;;;;;;0.90;0.63;;;;;;;11.51;72.04;98214.41;8249766;28;20243;-76
2023/01/04 19:07:00;;;;;;;1.00;1.00;;;;;;;11.48;72.13;98206.75;8249798;28;20231;-76
2023/01/04 19:11:03;;;;;;;1.50;1.33;;;;;;;11.41;72.00;98215.72;8249633;28;20239;-76
2023/01/04 19:15:07;;;;;;;1.43;1.33;;;;;;;11.45;71.61;98210.31;8249611;28;20228;-77
2023/01/04 19:19:11;;;;;;;1.30;1.20;;;;;;;11.44;71.38;98195.69;8249632;28;20252;-75
2023/01/04 19:23:14;;;;;;;1.30;1.20;;;;;;;11.40;72.05;98188.94;8249574;28;20236;-75
2023/01/04 19:27:18;;;;;;;0.70;0.70;;;;;;;11.28;71.10;98171.34;8249481;28;20243;-75
2023/01/04 19:31:21;;;;;;;2.70;0.70;;;;;;;11.46;70.38;98178.31;8249120;28;20286;-75
2023/01/04 19:35:27;;;;;;;1.43;0.60;;;;;;;11.28;70.98;98194.66;8249102;28;20418;-75
2023/01/04 19:39:30;;;;;;;0.60;0.60;;;;;;;11.42;70.36;98191.47;8249194;28;20434;-75
2023/01/04 19:43:33;;;;;;;0.50;0.50;;;;;;;11.34;70.89;98205.59;8248729;28;20282;-73
2023/01/04 19:47:35;;;;;;;0.70;0.50;;;;;;;11.31;71.03;98194.53;8248817;28;20243;-75
2023/01/04 19:51:42;;;;;;;0.75;0.65;;;;;;;11.34;71.98;98190.03;8251470;28;20435;-79
2023/01/04 19:55:45;;;;;;;5.30;0.93;;;;;;;12.99;72.44;98197.09;8254959;28;20251;-79
2023/01/04 19:59:48;;;;;;;2.00;0.80;;;;;;;12.55;66.44;98198.38;8254619;28;20233;-78
2023/01/04 20:03:52;;;;;;;0.70;0.70;;;;;;;12.16;67.49;98194.16;8255814;28;20527;-81
2023/01/04 20:07:56;;;;;;;0.50;0.50;;;;;;;12.00;68.01;98217.41;8255825;28;20251;-81
2023/01/04 20:11:59;;;;;;;0.60;0.60;;;;;;;11.92;68.55;98222.97;8255813;28;20234;-90